createdAt,value
2018-04-15T00:01:35.819Z,13.55
2018-04-15T00:04:05.412Z,13.53
2018-04-15T00:06:35.059Z,13.60
2018-04-15T00:09:05.182Z,13.54
2018-04-15T00:11:40.263Z,13.50
2018-04-15T00:14:11.458Z,13.60
2018-04-15T00:16:43.214Z,13.67
2018-04-15T00:19:14.260Z,13.73
2018-04-15T00:21:43.991Z,13.84
2018-04-15T00:24:14.823Z,13.81
2018-04-15T00:26:46.453Z,13.90
2018-04-15T00:29:16.050Z,13.81
2018-04-15T00:31:46.155Z,13.87
2018-04-15T00:34:16.104Z,13.96
2018-04-15T00:36:47.351Z,13.97
2018-04-15T00:39:17.134Z,13.93
2018-04-15T00:41:46.676Z,13.90
2018-04-15T00:44:16.589Z,13.89
2018-04-15T00:46:46.192Z,13.92
2018-04-15T00:49:19.162Z,14.04
2018-04-15T00:51:49.089Z,14.03
2018-04-15T00:54:19.116Z,14.09
2018-04-15T00:56:48.679Z,14.17
2018-04-15T00:59:18.324Z,14.23
2018-04-15T01:01:48.133Z,14.15
2018-04-15T01:04:19.182Z,14.09
2018-04-15T01:06:48.986Z,14.02
2018-04-15T01:09:19.735Z,14.02
2018-04-15T01:11:50.906Z,14.03
2018-04-15T01:14:23.438Z,14.04
2018-04-15T01:16:53.432Z,14.09
2018-04-15T01:19:23.936Z,14.11
2018-04-15T01:21:54.839Z,14.04
2018-04-15T01:24:25.783Z,14.09
2018-04-15T01:26:55.371Z,14.22
2018-04-15T01:29:25.160Z,14.17
2018-04-15T01:31:55.010Z,14.23
2018-04-15T01:34:25.694Z,14.22
2018-04-15T01:36:55.350Z,14.07
2018-04-15T01:39:26.776Z,14.08
2018-04-15T01:41:56.829Z,14.09
2018-04-15T01:44:26.564Z,14.08
2018-04-15T01:46:57.598Z,14.12
2018-04-15T01:49:27.806Z,14.16
2018-04-15T01:51:58.843Z,14.16
2018-04-15T01:54:29.215Z,14.23
2018-04-15T01:57:00.981Z,14.24
2018-04-15T01:59:34.785Z,14.20
2018-04-15T02:02:05.434Z,14.45
2018-04-15T02:04:35.258Z,14.28
2018-04-15T02:07:13.529Z,14.24
2018-04-15T02:09:44.731Z,14.29
2018-04-15T02:12:18.443Z,14.31
2018-04-15T02:14:50.513Z,14.37
2018-04-15T02:17:20.428Z,14.39
2018-04-15T02:19:51.826Z,14.40
2018-04-15T02:22:22.246Z,14.33
2018-04-15T02:24:52.444Z,14.22
2018-04-15T02:27:25.177Z,14.26
2018-04-15T02:29:54.987Z,14.33
2018-04-15T02:32:24.630Z,14.35
2018-04-15T02:34:57.122Z,14.38
2018-04-15T02:37:27.023Z,14.44
2018-04-15T02:39:56.823Z,14.45
2018-04-15T02:42:26.465Z,14.37
2018-04-15T02:44:57.438Z,14.28
2018-04-15T02:47:28.083Z,14.22
2018-04-15T02:50:05.123Z,14.11
2018-04-15T02:52:36.505Z,14.12
2018-04-15T02:55:09.720Z,14.10
2018-04-15T02:57:39.546Z,13.99
2018-04-15T03:00:09.557Z,13.97
2018-04-15T03:02:39.090Z,13.94
2018-04-15T03:05:09.009Z,13.95
2018-04-15T03:07:38.910Z,13.95
2018-04-15T03:10:08.464Z,13.93
2018-04-15T03:12:38.107Z,14.00
2018-04-15T03:15:09.771Z,13.92
2018-04-15T03:17:39.429Z,13.88
2018-04-15T03:20:09.260Z,14.02
2018-04-15T03:22:39.677Z,13.88
2018-04-15T03:25:09.773Z,13.88
2018-04-15T03:27:39.528Z,13.84
2018-04-15T03:30:11.029Z,13.83
2018-04-15T03:32:41.311Z,13.85
2018-04-15T03:35:12.025Z,13.88
2018-04-15T03:37:42.659Z,13.87
2018-04-15T03:40:12.955Z,13.87
2018-04-15T03:42:44.964Z,13.88
2018-04-15T03:45:17.031Z,13.94
2018-04-15T03:47:46.773Z,13.78
2018-04-15T03:50:19.100Z,13.71
2018-04-15T03:52:49.209Z,13.70
2018-04-15T03:55:19.695Z,13.67
2018-04-15T03:57:49.469Z,13.68
2018-04-15T04:00:20.074Z,13.59
2018-04-15T04:02:51.780Z,13.53
2018-04-15T04:05:21.494Z,13.41
2018-04-15T04:07:51.082Z,13.37
2018-04-15T04:10:20.556Z,13.40
2018-04-15T04:12:50.863Z,13.46
2018-04-15T04:15:21.679Z,13.51
2018-04-15T04:18:09.517Z,13.57
2018-04-15T04:20:57.829Z,13.61
2018-04-15T04:23:45.329Z,13.74
2018-04-15T04:26:16.735Z,13.70
2018-04-15T04:28:49.220Z,13.77
2018-04-15T04:31:19.568Z,13.80
2018-04-15T04:33:50.836Z,13.85
2018-04-15T04:36:20.492Z,13.80
2018-04-15T04:38:50.218Z,13.77
2018-04-15T04:41:20.638Z,13.84
2018-04-15T04:43:56.236Z,13.80
2018-04-15T04:46:26.964Z,13.80
2018-04-15T04:48:57.239Z,13.74
2018-04-15T04:51:26.777Z,13.76
2018-04-15T04:53:58.334Z,13.73
2018-04-15T04:56:28.188Z,13.79
2018-04-15T04:58:57.706Z,13.84
2018-04-15T05:01:27.547Z,13.96
2018-04-15T05:03:57.249Z,13.97
2018-04-15T05:06:27.262Z,14.04
2018-04-15T05:08:56.804Z,14.11
2018-04-15T05:11:27.077Z,14.09
2018-04-15T05:14:01.529Z,14.05
2018-04-15T05:16:31.193Z,13.98
2018-04-15T05:19:01.672Z,13.94
2018-04-15T05:21:32.334Z,14.01
2018-04-15T05:24:02.717Z,14.14
2018-04-15T05:26:34.698Z,14.17
2018-04-15T05:29:04.572Z,14.30
2018-04-15T05:31:34.175Z,14.27
2018-04-15T05:34:04.081Z,14.31
2018-04-15T05:36:33.697Z,14.32
2018-04-15T05:39:03.362Z,14.34
2018-04-15T05:41:33.138Z,14.32
2018-04-15T05:44:03.256Z,14.21
2018-04-15T05:46:32.980Z,14.20
2018-04-15T05:49:02.726Z,14.19
2018-04-15T05:51:33.192Z,14.08
2018-04-15T05:54:02.837Z,14.10
2018-04-15T05:56:35.109Z,14.14
2018-04-15T05:59:04.807Z,14.33
2018-04-15T06:01:34.904Z,14.33
2018-04-15T06:04:04.661Z,14.33
2018-04-15T06:06:35.950Z,14.36
2018-04-15T06:09:06.282Z,14.33
2018-04-15T06:11:36.184Z,14.24
2018-04-15T06:14:06.453Z,14.09
2018-04-15T06:16:36.002Z,13.96
2018-04-15T06:19:06.320Z,13.92
2018-04-15T06:21:36.917Z,13.88
2018-04-15T06:24:06.531Z,13.77
2018-04-15T06:26:36.299Z,13.86
2018-04-15T06:29:05.799Z,13.88
2018-04-15T06:31:36.987Z,14.12
2018-04-15T06:34:06.800Z,14.20
2018-04-15T06:36:36.491Z,14.43
2018-04-15T06:39:09.065Z,14.60
2018-04-15T06:41:38.570Z,14.82
2018-04-15T06:44:09.100Z,14.97
2018-04-15T06:46:38.827Z,15.01
2018-04-15T06:49:08.461Z,15.13
2018-04-15T06:51:38.299Z,15.19
2018-04-15T06:54:08.643Z,15.13
2018-04-15T06:56:38.272Z,15.15
2018-04-15T06:59:07.948Z,15.23
2018-04-15T07:01:38.642Z,15.23
2018-04-15T07:04:08.343Z,15.20
2018-04-15T07:06:40.794Z,15.32
2018-04-15T07:09:11.455Z,15.44
2018-04-15T07:11:41.065Z,15.56
2018-04-15T07:14:11.829Z,15.84
2018-04-15T07:16:41.455Z,15.92
2018-04-15T07:19:11.517Z,16.01
2018-04-15T07:21:41.253Z,15.99
2018-04-15T07:24:11.263Z,16.00
2018-04-15T07:26:41.164Z,16.13
2018-04-15T07:29:11.665Z,16.29
2018-04-15T07:31:41.814Z,16.43
2018-04-15T07:34:12.020Z,16.52
2018-04-15T07:36:47.066Z,16.61
2018-04-15T07:39:17.533Z,16.69
2018-04-15T07:41:47.248Z,16.72
2018-04-15T07:44:17.354Z,16.84
2018-04-15T07:46:46.867Z,16.87
2018-04-15T07:49:16.431Z,16.77
2018-04-15T07:51:46.994Z,16.64
2018-04-15T07:54:17.058Z,16.54
2018-04-15T07:56:47.010Z,16.66
2018-04-15T07:59:16.828Z,16.57
2018-04-15T08:01:46.509Z,16.59
2018-04-15T08:04:16.034Z,16.65
2018-04-15T08:06:45.635Z,16.53
2018-04-15T08:09:15.861Z,16.45
2018-04-15T08:11:45.796Z,16.53
2018-04-15T08:14:15.407Z,16.51
2018-04-15T08:16:45.461Z,16.40
2018-04-15T08:19:15.023Z,16.32
2018-04-15T08:21:44.994Z,16.35
2018-04-15T08:24:15.367Z,16.52
2018-04-15T08:26:45.486Z,16.76
2018-04-15T08:29:15.047Z,17.03
2018-04-15T08:31:45.671Z,16.95
2018-04-15T08:34:16.366Z,16.86
2018-04-15T08:36:45.959Z,16.75
2018-04-15T08:39:15.680Z,16.77
2018-04-15T08:41:45.763Z,16.74
2018-04-15T08:44:16.228Z,16.81
2018-04-15T08:46:46.150Z,16.84
2018-04-15T08:49:15.957Z,16.90
2018-04-15T08:51:46.177Z,16.95
2018-04-15T08:54:15.786Z,16.99
2018-04-15T08:56:46.151Z,16.83
2018-04-15T08:59:34.511Z,16.83
2018-04-15T09:02:07.541Z,16.80
2018-04-15T09:04:58.308Z,16.95
2018-04-15T09:07:55.608Z,17.06
2018-04-15T09:10:29.514Z,17.27
2018-04-15T09:13:00.224Z,17.46
2018-04-15T09:15:29.893Z,17.69
2018-04-15T09:17:59.750Z,18.10
2018-04-15T09:20:30.405Z,18.33
2018-04-15T09:23:00.610Z,18.55
2018-04-15T09:25:31.549Z,18.42
2018-04-15T09:28:02.035Z,18.20
2018-04-15T09:30:32.312Z,18.18
2018-04-15T09:33:02.033Z,18.59
2018-04-15T09:35:34.087Z,18.86
2018-04-15T09:38:04.853Z,18.95
2018-04-15T09:40:36.389Z,18.96
2018-04-15T09:43:05.937Z,19.11
2018-04-15T09:45:36.921Z,19.22
2018-04-15T09:48:06.548Z,18.99
2018-04-15T09:50:36.359Z,18.81
2018-04-15T09:53:06.068Z,18.83
2018-04-15T09:55:35.702Z,18.60
2018-04-15T09:58:11.702Z,18.32
2018-04-15T10:00:41.248Z,18.14
2018-04-15T10:03:11.352Z,18.12
2018-04-15T10:05:41.481Z,17.85
2018-04-15T10:08:11.649Z,17.67
2018-04-15T10:10:41.987Z,17.56
2018-04-15T10:13:11.557Z,17.60
2018-04-15T10:15:41.116Z,17.63
2018-04-15T10:18:11.372Z,17.68
2018-04-15T10:20:41.077Z,17.76
2018-04-15T10:23:10.879Z,17.77
2018-04-15T10:25:40.592Z,17.81
2018-04-15T10:28:10.832Z,17.74
2018-04-15T10:30:40.415Z,17.80
2018-04-15T10:33:10.405Z,17.92
2018-04-15T10:35:40.759Z,18.01
2018-04-15T10:38:10.479Z,18.13
2018-04-15T10:40:40.113Z,18.24
2018-04-15T10:43:09.676Z,18.29
2018-04-15T10:45:39.230Z,18.40
2018-04-15T10:48:08.929Z,18.50
2018-04-15T10:50:38.837Z,18.52
2018-04-15T10:53:10.096Z,18.43
2018-04-15T10:55:41.125Z,18.26
2018-04-15T10:58:13.353Z,18.29
2018-04-15T11:00:44.843Z,18.47
2018-04-15T11:03:16.051Z,18.62
2018-04-15T11:05:46.511Z,18.80
2018-04-15T11:08:16.324Z,18.97
2018-04-15T11:10:46.009Z,19.17
2018-04-15T11:13:16.069Z,19.10
2018-04-15T11:15:46.562Z,19.11
2018-04-15T11:18:18.811Z,19.21
2018-04-15T11:20:48.861Z,19.18
2018-04-15T11:23:18.423Z,19.26
2018-04-15T11:25:48.895Z,19.36
2018-04-15T11:28:18.414Z,19.18
2018-04-15T11:30:48.127Z,19.09
2018-04-15T11:33:18.625Z,18.96
2018-04-15T11:35:48.378Z,18.86
2018-04-15T11:38:18.047Z,18.71
2018-04-15T11:40:47.599Z,18.68
2018-04-15T11:43:17.903Z,18.63
2018-04-15T11:48:40.966Z,18.06
2018-04-15T11:51:11.775Z,17.91
2018-04-15T11:53:42.149Z,17.93
2018-04-15T11:56:13.192Z,18.04
2018-04-15T11:58:44.006Z,18.08
2018-04-15T12:01:13.858Z,18.14
2018-04-15T12:03:44.359Z,18.21
2018-04-15T12:06:14.409Z,18.18
2018-04-15T12:08:45.009Z,18.13
2018-04-15T12:11:15.555Z,17.89
2018-04-15T12:13:45.893Z,17.61
2018-04-15T12:25:39.224Z,17.53
2018-04-15T12:28:09.086Z,17.61
2018-04-15T12:30:38.973Z,17.78
2018-04-15T12:33:08.764Z,17.98
2018-04-15T12:35:38.816Z,18.10
2018-04-15T12:38:10.181Z,18.02
2018-04-15T12:40:39.785Z,18.09
2018-04-15T12:43:09.820Z,18.23
2018-04-15T12:45:39.573Z,18.50
2018-04-15T12:48:09.774Z,18.68
2018-04-15T12:50:39.474Z,18.93
2018-04-15T12:53:10.339Z,19.23
2018-04-15T12:55:41.241Z,19.39
2018-04-15T12:58:11.408Z,19.57
2018-04-15T13:00:41.748Z,19.71
2018-04-15T13:03:11.868Z,19.84
2018-04-15T13:05:43.467Z,19.96
2018-04-15T13:08:13.890Z,19.94
2018-04-15T13:10:43.654Z,20.03
2018-04-15T13:13:19.567Z,20.19
2018-04-15T13:15:49.426Z,20.30
2018-04-15T13:18:19.617Z,20.35
2018-04-15T13:20:50.172Z,20.30
2018-04-15T13:23:20.651Z,20.39
2018-04-15T13:25:50.365Z,20.43
2018-04-15T13:28:21.946Z,20.42
2018-04-15T13:30:51.660Z,20.39
2018-04-15T13:33:21.308Z,20.10
2018-04-15T13:35:52.602Z,19.93
2018-04-15T13:38:22.620Z,20.01
2018-04-15T13:40:57.357Z,20.04
2018-04-15T13:43:32.900Z,19.99
2018-04-15T13:46:04.511Z,19.93
2018-04-15T13:48:39.908Z,20.21
2018-04-15T13:51:10.397Z,20.32
2018-04-15T13:53:41.077Z,20.45
2018-04-15T13:56:10.781Z,20.43
2018-04-15T13:58:40.576Z,20.46
2018-04-15T14:01:11.598Z,20.38
2018-04-15T14:03:50.817Z,20.40
2018-04-15T14:06:20.888Z,20.17
2018-04-15T14:08:50.873Z,20.22
2018-04-15T14:11:21.193Z,20.46
2018-04-15T14:13:51.257Z,20.65
2018-04-15T14:16:21.501Z,20.63
2018-04-15T14:18:52.330Z,20.69
2018-04-15T14:21:22.206Z,20.58
2018-04-15T14:23:52.162Z,20.57
2018-04-15T14:26:22.401Z,20.57
2018-04-15T14:28:52.529Z,20.68
2018-04-15T14:31:22.658Z,20.59
2018-04-15T14:33:52.760Z,20.60
2018-04-15T14:36:22.650Z,20.64
2018-04-15T14:38:52.614Z,20.69
2018-04-15T14:41:22.485Z,20.57
2018-04-15T14:43:52.515Z,20.49
2018-04-15T14:46:23.456Z,20.44
2018-04-15T14:48:53.893Z,20.33
2018-04-15T14:51:25.956Z,20.25
2018-04-15T14:53:56.768Z,20.23
2018-04-15T14:56:27.224Z,20.17
2018-04-15T14:58:58.671Z,20.16
2018-04-15T15:01:30.331Z,20.15
2018-04-15T15:04:01.542Z,20.21
2018-04-15T15:06:33.426Z,20.19
2018-04-15T15:09:05.389Z,20.19
2018-04-15T15:11:36.428Z,19.88
2018-04-15T15:14:07.275Z,19.72
2018-04-15T15:16:38.208Z,19.73
2018-04-15T15:19:16.832Z,19.96
2018-04-15T15:21:49.579Z,20.26
2018-04-15T15:24:19.899Z,20.33
2018-04-15T15:26:50.401Z,20.43
2018-04-15T15:29:21.526Z,20.49
2018-04-15T15:31:52.467Z,20.55
2018-04-15T15:34:23.237Z,20.64
2018-04-15T15:36:53.506Z,20.70
2018-04-15T15:49:22.278Z,20.67
2018-04-15T15:51:53.420Z,20.55
2018-04-15T15:54:23.955Z,20.35
2018-04-15T15:56:54.485Z,20.22
2018-04-15T15:59:24.796Z,20.22
2018-04-15T16:01:55.452Z,20.09
2018-04-15T16:04:27.012Z,19.88
2018-04-15T16:06:57.719Z,19.69
2018-04-15T16:09:28.510Z,19.36
2018-04-15T16:12:00.271Z,19.23
2018-04-15T16:14:30.479Z,19.10
2018-04-15T16:17:01.385Z,19.08
2018-04-15T16:19:31.804Z,18.98
2018-04-15T16:22:02.032Z,18.91
2018-04-15T16:24:32.452Z,18.91
2018-04-15T16:27:03.305Z,18.97
2018-04-15T16:29:33.637Z,18.91
2018-04-15T16:32:03.742Z,18.89
2018-04-15T16:34:33.995Z,18.72
2018-04-15T16:37:04.496Z,18.68
2018-04-15T16:39:34.942Z,18.66
2018-04-15T16:42:05.456Z,18.57
2018-04-15T16:44:36.555Z,18.63
2018-04-15T16:47:07.742Z,18.51
2018-04-15T16:49:38.121Z,18.46
2018-04-15T16:52:09.147Z,18.47
2018-04-15T16:54:40.094Z,18.34
2018-04-15T16:57:29.256Z,18.24
2018-04-15T17:00:48.750Z,18.12
2018-04-15T17:07:10.653Z,17.92
2018-04-15T17:09:41.901Z,17.75
2018-04-15T17:12:13.097Z,17.72
2018-04-15T17:14:43.411Z,17.60
2018-04-15T17:17:14.889Z,17.56
2018-04-15T17:19:45.250Z,17.47
2018-04-15T17:22:16.039Z,17.32
2018-04-15T17:24:46.014Z,17.18
2018-04-15T17:27:16.639Z,17.08
2018-04-15T17:29:48.828Z,17.04
2018-04-15T17:32:24.599Z,17.03
2018-04-15T17:34:54.698Z,16.94
2018-04-15T17:37:25.891Z,16.83
2018-04-15T17:39:57.331Z,16.78
2018-04-15T17:42:27.402Z,16.80
2018-04-15T17:44:57.606Z,16.79
2018-04-15T17:47:27.985Z,16.79
2018-04-15T17:49:58.358Z,16.86
2018-04-15T17:52:28.514Z,16.81
2018-04-15T17:55:00.277Z,16.68
2018-04-15T17:57:31.486Z,16.82
2018-04-15T18:00:01.782Z,16.68
2018-04-15T18:02:32.069Z,16.67
2018-04-15T18:05:02.459Z,16.54
2018-04-15T18:07:40.024Z,16.39
2018-04-15T18:10:10.133Z,16.34
2018-04-15T18:12:40.335Z,16.18
2018-04-15T18:15:11.379Z,16.20
2018-04-15T18:17:42.999Z,16.11
2018-04-15T18:20:14.839Z,16.18
2018-04-15T18:22:45.100Z,16.13
2018-04-15T18:25:17.458Z,16.13
2018-04-15T18:27:47.791Z,16.13
2018-04-15T18:30:18.926Z,16.16
2018-04-15T18:32:50.205Z,16.11
2018-04-15T18:35:20.506Z,16.05
2018-04-15T18:37:50.919Z,16.07
2018-04-15T18:40:21.072Z,16.03
2018-04-15T18:42:52.083Z,16.06
2018-04-15T18:45:22.296Z,15.97
2018-04-15T18:47:52.783Z,15.94
2018-04-15T18:50:24.126Z,15.87
2018-04-15T18:52:55.299Z,15.85
2018-04-15T18:55:26.284Z,15.83
2018-04-15T18:57:56.807Z,15.78
2018-04-15T19:00:27.337Z,15.71
2018-04-15T19:02:58.316Z,15.84
2018-04-15T19:05:29.221Z,15.88
2018-04-15T19:07:59.406Z,15.79
2018-04-15T19:10:29.967Z,15.80
2018-04-15T19:13:00.385Z,15.82
2018-04-15T19:15:30.440Z,15.84
2018-04-15T19:18:00.773Z,15.83
2018-04-15T19:20:32.926Z,15.72
2018-04-15T19:23:07.853Z,15.68
2018-04-15T19:25:43.106Z,15.66
2018-04-15T19:28:14.856Z,15.77
2018-04-15T19:30:44.994Z,15.73
2018-04-15T19:33:16.880Z,15.61
2018-04-15T19:35:47.142Z,15.68
2018-04-15T19:38:17.508Z,15.68
2018-04-15T19:40:49.363Z,15.69
2018-04-15T19:43:21.398Z,15.62
2018-04-15T19:45:51.395Z,15.53
2018-04-15T19:48:22.351Z,15.47
2018-04-15T19:50:52.669Z,15.40
2018-04-15T19:53:23.312Z,15.23
2018-04-15T19:55:53.741Z,15.13
2018-04-15T19:58:24.187Z,15.21
2018-04-15T20:00:55.318Z,15.15
2018-04-15T20:03:26.614Z,15.06
2018-04-15T20:05:59.659Z,14.98
2018-04-15T20:08:30.552Z,15.00
2018-04-15T20:11:00.753Z,14.97
2018-04-15T20:13:31.028Z,14.92
2018-04-15T20:16:01.418Z,14.94
2018-04-15T20:18:32.392Z,14.85
2018-04-15T20:21:02.792Z,14.72
2018-04-15T20:23:32.767Z,14.71
2018-04-15T20:26:03.682Z,14.90
2018-04-15T20:28:33.905Z,14.76
2018-04-15T20:31:04.432Z,14.70
2018-04-15T20:33:35.957Z,14.62
2018-04-15T20:36:07.348Z,14.50
2018-04-15T20:38:37.664Z,14.39
2018-04-15T20:41:08.185Z,14.28
2018-04-15T20:43:38.319Z,14.22
2018-04-15T20:46:08.572Z,14.26
2018-04-15T20:48:39.585Z,14.21
2018-04-15T20:51:11.482Z,14.14
2018-04-15T20:53:41.965Z,14.12
2018-04-15T20:56:12.345Z,14.00
2018-04-15T20:58:43.039Z,14.06
2018-04-15T21:01:13.762Z,13.96
2018-04-15T21:03:45.921Z,14.01
2018-04-15T21:06:16.343Z,13.98
2018-04-15T21:08:46.930Z,14.06
2018-04-15T21:11:18.328Z,14.03
2018-04-15T21:13:50.268Z,13.95
2018-04-15T21:16:20.409Z,13.89
2018-04-15T21:18:50.999Z,13.84
2018-04-15T21:21:21.065Z,13.73
2018-04-15T21:23:52.338Z,13.85
2018-04-15T21:26:22.673Z,13.73
2018-04-15T21:28:54.640Z,13.72
2018-04-15T21:31:34.598Z,13.76
2018-04-15T21:34:06.986Z,13.74
2018-04-15T21:37:00.739Z,13.65
2018-04-15T21:40:05.185Z,13.62
2018-04-15T21:43:02.675Z,13.68
2018-04-15T21:45:33.136Z,13.74
2018-04-15T21:48:03.945Z,13.78
2018-04-15T21:50:34.204Z,13.73
2018-04-15T21:53:04.863Z,13.72
2018-04-15T21:55:35.232Z,13.76
2018-04-15T21:58:05.354Z,13.71
2018-04-15T22:00:38.171Z,13.69
2018-04-15T22:03:09.968Z,13.49
2018-04-15T22:05:46.952Z,13.42
2018-04-15T22:08:17.856Z,13.31
2018-04-15T22:10:49.810Z,13.33
2018-04-15T22:13:20.678Z,13.40
2018-04-15T22:15:51.560Z,13.43
2018-04-15T22:18:26.581Z,13.45
2018-04-15T22:20:57.548Z,13.56
2018-04-15T22:23:27.051Z,13.70
2018-04-15T22:26:02.603Z,13.70
2018-04-15T22:28:33.385Z,13.69
2018-04-15T22:31:05.733Z,13.68
2018-04-15T22:33:36.333Z,13.68
2018-04-15T22:36:06.586Z,13.70
2018-04-15T22:38:37.063Z,13.68
2018-04-15T22:41:07.541Z,13.64
2018-04-15T22:43:38.963Z,13.59
2018-04-15T22:46:10.887Z,13.45
2018-04-15T22:48:46.710Z,13.38
2018-04-15T22:51:17.009Z,13.33
2018-04-15T22:53:48.628Z,13.26
2018-04-15T22:56:19.029Z,13.11
2018-04-15T22:58:50.778Z,12.94
2018-04-15T23:01:22.362Z,12.72
2018-04-15T23:03:54.267Z,12.43
2018-04-15T23:06:26.581Z,12.16
2018-04-15T23:08:57.328Z,12.08
2018-04-15T23:11:29.284Z,12.14
2018-04-15T23:13:59.371Z,12.27
2018-04-15T23:16:32.396Z,12.42
2018-04-15T23:19:03.161Z,12.65
2018-04-15T23:21:34.079Z,12.96
2018-04-15T23:24:07.709Z,13.07
2018-04-15T23:26:39.599Z,13.02
2018-04-15T23:29:09.978Z,13.10
2018-04-15T23:31:41.166Z,13.17
2018-04-15T23:34:13.822Z,13.09
2018-04-15T23:36:44.925Z,13.10
2018-04-15T23:39:17.258Z,13.09
2018-04-15T23:41:48.861Z,13.06
2018-04-15T23:44:19.287Z,12.95
2018-04-15T23:46:49.784Z,12.99
2018-04-15T23:49:21.249Z,13.03
2018-04-15T23:51:51.355Z,13.01
2018-04-15T23:54:20.907Z,12.92
2018-04-15T23:56:55.970Z,12.76
2018-04-15T23:59:26.773Z,12.68
